sensor_id;sensor_type;location;lat;lon;timestamp;pressure;altitude;pressure_sealevel;temperature;humidity
41306;BME280;27051;50.376;19.152;2023-05-22T00:01:45;98391.80;;;16.25;46.75
41306;BME280;27051;50.376;19.152;2023-05-22T00:04:12;98393.98;;;16.25;46.83
41306;BME280;27051;50.376;19.152;2023-05-22T00:06:41;98392.63;;;16.23;46.98
41306;BME280;27051;50.376;19.152;2023-05-22T00:09:08;98394.21;;;16.19;46.95
41306;BME280;27051;50.376;19.152;2023-05-22T00:11:35;98397.17;;;16.14;46.94
41306;BME280;27051;50.376;19.152;2023-05-22T00:14:01;98394.05;;;16.12;46.89
41306;BME280;27051;50.376;19.152;2023-05-22T00:16:28;98393.24;;;16.04;47.05
41306;BME280;27051;50.376;19.152;2023-05-22T00:18:54;98393.09;;;15.98;47.08
41306;BME280;27051;50.376;19.152;2023-05-22T00:21:22;98394.14;;;15.95;47.09
41306;BME280;27051;50.376;19.152;2023-05-22T00:23:49;98388.98;;;15.86;47.23
41306;BME280;27051;50.376;19.152;2023-05-22T00:26:16;98385.30;;;15.82;47.40
41306;BME280;27051;50.376;19.152;2023-05-22T00:28:42;98383.34;;;15.81;47.48
41306;BME280;27051;50.376;19.152;2023-05-22T00:31:10;98381.56;;;15.75;47.55
41306;BME280;27051;50.376;19.152;2023-05-22T00:33:37;98375.39;;;15.63;47.66
41306;BME280;27051;50.376;19.152;2023-05-22T00:36:05;98376.67;;;15.55;47.76
41306;BME280;27051;50.376;19.152;2023-05-22T00:38:33;98375.26;;;15.49;47.69
41306;BME280;27051;50.376;19.152;2023-05-22T00:41:01;98377.95;;;15.42;47.81
41306;BME280;27051;50.376;19.152;2023-05-22T00:43:28;98373.48;;;15.44;47.87
41306;BME280;27051;50.376;19.152;2023-05-22T00:45:55;98374.35;;;15.45;47.77
41306;BME280;27051;50.376;19.152;2023-05-22T00:48:22;98373.32;;;15.43;47.88
41306;BME280;27051;50.376;19.152;2023-05-22T00:50:50;98371.57;;;15.40;47.98
41306;BME280;27051;50.376;19.152;2023-05-22T00:53:20;98372.52;;;15.36;47.93
41306;BME280;27051;50.376;19.152;2023-05-22T00:55:48;98371.20;;;15.35;48.09
41306;BME280;27051;50.376;19.152;2023-05-22T00:58:17;98368.61;;;15.39;48.03
41306;BME280;27051;50.376;19.152;2023-05-22T01:00:44;98365.64;;;15.42;48.24
41306;BME280;27051;50.376;19.152;2023-05-22T01:03:11;98362.23;;;15.41;48.37
41306;BME280;27051;50.376;19.152;2023-05-22T01:05:39;98361.31;;;15.37;48.19
41306;BME280;27051;50.376;19.152;2023-05-22T01:08:07;98359.09;;;15.29;48.31
41306;BME280;27051;50.376;19.152;2023-05-22T01:10:35;98355.94;;;15.24;48.40
41306;BME280;27051;50.376;19.152;2023-05-22T01:13:29;98354.85;;;15.24;48.36
41306;BME280;27051;50.376;19.152;2023-05-22T01:18:57;98351.45;;;15.14;48.54
41306;BME280;27051;50.376;19.152;2023-05-22T01:21:39;98346.80;;;15.14;48.57
41306;BME280;27051;50.376;19.152;2023-05-22T01:29:47;98349.95;;;14.99;48.52
41306;BME280;27051;50.376;19.152;2023-05-22T01:32:23;98347.89;;;14.94;48.71
41306;BME280;27051;50.376;19.152;2023-05-22T01:34:55;98350.33;;;14.88;48.75
41306;BME280;27051;50.376;19.152;2023-05-22T01:37:25;98348.48;;;14.85;48.82
41306;BME280;27051;50.376;19.152;2023-05-22T01:39:53;98349.23;;;14.83;48.85
41306;BME280;27051;50.376;19.152;2023-05-22T01:42:20;98345.96;;;14.82;48.84
41306;BME280;27051;50.376;19.152;2023-05-22T01:44:47;98347.37;;;14.83;48.93
41306;BME280;27051;50.376;19.152;2023-05-22T01:47:14;98349.52;;;14.83;48.84
41306;BME280;27051;50.376;19.152;2023-05-22T01:49:40;98348.77;;;14.83;48.86
41306;BME280;27051;50.376;19.152;2023-05-22T01:54:57;98344.59;;;14.83;49.05
41306;BME280;27051;50.376;19.152;2023-05-22T01:57:37;98346.30;;;14.74;49.09
41306;BME280;27051;50.376;19.152;2023-05-22T02:00:08;98344.30;;;14.66;49.14
41306;BME280;27051;50.376;19.152;2023-05-22T02:02:37;98343.94;;;14.63;49.05
41306;BME280;27051;50.376;19.152;2023-05-22T02:05:07;98341.27;;;14.61;49.27
41306;BME280;27051;50.376;19.152;2023-05-22T02:07:37;98341.52;;;14.53;49.27
41306;BME280;27051;50.376;19.152;2023-05-22T02:10:06;98342.61;;;14.50;49.45
41306;BME280;27051;50.376;19.152;2023-05-22T02:12:34;98341.85;;;14.51;49.38
41306;BME280;27051;50.376;19.152;2023-05-22T02:15:01;98346.14;;;14.49;49.41
41306;BME280;27051;50.376;19.152;2023-05-22T02:17:28;98347.09;;;14.43;49.47
41306;BME280;27051;50.376;19.152;2023-05-22T02:19:55;98346.06;;;14.37;49.35
41306;BME280;27051;50.376;19.152;2023-05-22T02:22:21;98346.10;;;14.35;49.44
41306;BME280;27051;50.376;19.152;2023-05-22T02:24:48;98345.56;;;14.35;49.45
41306;BME280;27051;50.376;19.152;2023-05-22T02:27:14;98342.88;;;14.31;49.63
41306;BME280;27051;50.376;19.152;2023-05-22T02:29:41;98343.91;;;14.28;49.63
41306;BME280;27051;50.376;19.152;2023-05-22T02:32:08;98346.98;;;14.28;49.51
41306;BME280;27051;50.376;19.152;2023-05-22T02:34:34;98346.01;;;14.26;49.55
41306;BME280;27051;50.376;19.152;2023-05-22T02:37:01;98348.04;;;14.19;49.63
41306;BME280;27051;50.376;19.152;2023-05-22T02:39:29;98347.11;;;14.19;49.78
41306;BME280;27051;50.376;19.152;2023-05-22T02:41:55;98344.30;;;14.17;50.05
41306;BME280;27051;50.376;19.152;2023-05-22T02:44:22;98345.98;;;14.16;50.07
41306;BME280;27051;50.376;19.152;2023-05-22T02:46:48;98340.48;;;14.20;49.96
41306;BME280;27051;50.376;19.152;2023-05-22T02:49:15;98342.05;;;14.24;50.16
41306;BME280;27051;50.376;19.152;2023-05-22T02:51:42;98339.92;;;14.26;49.99
41306;BME280;27051;50.376;19.152;2023-05-22T02:54:08;98341.23;;;14.30;50.14
41306;BME280;27051;50.376;19.152;2023-05-22T02:56:35;98341.35;;;14.33;50.10
41306;BME280;27051;50.376;19.152;2023-05-22T02:59:01;98338.88;;;14.32;50.07
41306;BME280;27051;50.376;19.152;2023-05-22T03:01:28;98340.19;;;14.32;50.06
41306;BME280;27051;50.376;19.152;2023-05-22T03:03:55;98340.23;;;14.34;49.84
41306;BME280;27051;50.376;19.152;2023-05-22T03:06:21;98341.53;;;14.34;50.04
41306;BME280;27051;50.376;19.152;2023-05-22T03:08:48;98340.47;;;14.35;49.94
41306;BME280;27051;50.376;19.152;2023-05-22T03:11:14;98335.80;;;14.37;50.04
41306;BME280;27051;50.376;19.152;2023-05-22T03:13:41;98335.64;;;14.37;50.11
41306;BME280;27051;50.376;19.152;2023-05-22T03:16:08;98334.46;;;14.37;50.16
41306;BME280;27051;50.376;19.152;2023-05-22T03:18:34;98335.52;;;14.38;50.09
41306;BME280;27051;50.376;19.152;2023-05-22T03:21:01;98332.66;;;14.43;49.97
41306;BME280;27051;50.376;19.152;2023-05-22T03:23:27;98331.91;;;14.49;49.93
41306;BME280;27051;50.376;19.152;2023-05-22T03:25:54;98331.20;;;14.55;49.63
41306;BME280;27051;50.376;19.152;2023-05-22T03:28:20;98328.64;;;14.59;49.79
41306;BME280;27051;50.376;19.152;2023-05-22T03:30:47;98328.77;;;14.62;49.80
41306;BME280;27051;50.376;19.152;2023-05-22T03:33:14;98329.95;;;14.63;49.88
41306;BME280;27051;50.376;19.152;2023-05-22T03:35:41;98331.01;;;14.62;49.54
41306;BME280;27051;50.376;19.152;2023-05-22T03:38:07;98330.79;;;14.63;49.69
41306;BME280;27051;50.376;19.152;2023-05-22T03:40:34;98331.70;;;14.67;49.87
41306;BME280;27051;50.376;19.152;2023-05-22T03:43:00;98329.77;;;14.65;49.80
41306;BME280;27051;50.376;19.152;2023-05-22T03:45:27;98326.00;;;14.67;49.80
41306;BME280;27051;50.376;19.152;2023-05-22T03:48:00;98331.62;;;14.70;50.11
41306;BME280;27051;50.376;19.152;2023-05-22T03:50:26;98331.95;;;14.76;50.00
41306;BME280;27051;50.376;19.152;2023-05-22T03:52:53;98335.02;;;14.79;49.86
41306;BME280;27051;50.376;19.152;2023-05-22T03:55:19;98334.27;;;14.76;49.82
41306;BME280;27051;50.376;19.152;2023-05-22T03:57:46;98330.89;;;14.78;49.70
41306;BME280;27051;50.376;19.152;2023-05-22T04:00:13;98333.20;;;14.77;49.55
41306;BME280;27051;50.376;19.152;2023-05-22T04:02:40;98340.55;;;14.73;49.72
41306;BME280;27051;50.376;19.152;2023-05-22T04:05:07;98344.41;;;14.77;49.68
41306;BME280;27051;50.376;19.152;2023-05-22T04:07:34;98341.52;;;14.80;49.71
41306;BME280;27051;50.376;19.152;2023-05-22T04:10:04;98344.50;;;14.83;49.84
41306;BME280;27051;50.376;19.152;2023-05-22T04:12:31;98342.66;;;14.87;49.96
41306;BME280;27051;50.376;19.152;2023-05-22T04:14:58;98339.29;;;14.94;49.87
41306;BME280;27051;50.376;19.152;2023-05-22T04:17:30;98339.34;;;15.02;49.98
41306;BME280;27051;50.376;19.152;2023-05-22T04:19:57;98336.69;;;15.10;50.00
41306;BME280;27051;50.376;19.152;2023-05-22T04:22:23;98336.93;;;15.16;50.13
41306;BME280;27051;50.376;19.152;2023-05-22T04:24:50;98335.79;;;15.27;49.97
41306;BME280;27051;50.376;19.152;2023-05-22T04:27:17;98333.58;;;15.35;49.79
41306;BME280;27051;50.376;19.152;2023-05-22T04:29:43;98335.90;;;15.40;49.99
41306;BME280;27051;50.376;19.152;2023-05-22T04:32:10;98330.05;;;15.48;50.00
41306;BME280;27051;50.376;19.152;2023-05-22T04:34:37;98328.38;;;15.56;50.19
41306;BME280;27051;50.376;19.152;2023-05-22T04:37:04;98329.42;;;15.64;49.90
41306;BME280;27051;50.376;19.152;2023-05-22T04:39:30;98329.98;;;15.74;50.04
41306;BME280;27051;50.376;19.152;2023-05-22T04:41:57;98327.09;;;15.85;49.93
41306;BME280;27051;50.376;19.152;2023-05-22T04:44:24;98327.58;;;15.93;49.61
41306;BME280;27051;50.376;19.152;2023-05-22T04:46:50;98327.59;;;16.00;49.68
41306;BME280;27051;50.376;19.152;2023-05-22T04:49:17;98322.05;;;16.10;49.36
41306;BME280;27051;50.376;19.152;2023-05-22T04:51:43;98322.95;;;16.20;49.20
41306;BME280;27051;50.376;19.152;2023-05-22T04:54:10;98324.73;;;16.30;49.12
41306;BME280;27051;50.376;19.152;2023-05-22T04:56:37;98325.06;;;16.38;49.19
41306;BME280;27051;50.376;19.152;2023-05-22T04:59:04;98320.19;;;16.47;49.39
41306;BME280;27051;50.376;19.152;2023-05-22T05:01:30;98326.61;;;16.54;49.16
41306;BME280;27051;50.376;19.152;2023-05-22T05:03:57;98324.38;;;16.61;48.94
41306;BME280;27051;50.376;19.152;2023-05-22T05:06:23;98324.57;;;16.66;48.89
41306;BME280;27051;50.376;19.152;2023-05-22T05:08:50;98327.68;;;16.74;48.67
41306;BME280;27051;50.376;19.152;2023-05-22T05:11:17;98325.86;;;16.85;48.74
41306;BME280;27051;50.376;19.152;2023-05-22T05:13:43;98331.02;;;16.97;48.59
41306;BME280;27051;50.376;19.152;2023-05-22T05:16:10;98331.42;;;17.02;48.56
41306;BME280;27051;50.376;19.152;2023-05-22T05:18:38;98327.86;;;17.14;48.23
41306;BME280;27051;50.376;19.152;2023-05-22T05:21:04;98330.66;;;17.25;48.12
41306;BME280;27051;50.376;19.152;2023-05-22T05:23:31;98335.37;;;17.32;47.91
41306;BME280;27051;50.376;19.152;2023-05-22T05:25:57;98336.75;;;17.43;48.27
41306;BME280;27051;50.376;19.152;2023-05-22T05:28:24;98337.77;;;17.53;47.87
41306;BME280;27051;50.376;19.152;2023-05-22T05:30:51;98338.73;;;17.60;48.00
41306;BME280;27051;50.376;19.152;2023-05-22T05:33:17;98336.83;;;17.66;47.73
41306;BME280;27051;50.376;19.152;2023-05-22T05:35:44;98334.44;;;17.70;47.59
41306;BME280;27051;50.376;19.152;2023-05-22T05:38:11;98333.91;;;17.73;47.38
41306;BME280;27051;50.376;19.152;2023-05-22T05:40:37;98335.27;;;17.79;47.67
41306;BME280;27051;50.376;19.152;2023-05-22T05:43:04;98334.84;;;17.84;47.46
41306;BME280;27051;50.376;19.152;2023-05-22T05:45:30;98335.11;;;17.89;47.28
41306;BME280;27051;50.376;19.152;2023-05-22T05:47:57;98336.83;;;17.93;47.23
41306;BME280;27051;50.376;19.152;2023-05-22T05:50:24;98332.34;;;17.97;47.12
41306;BME280;27051;50.376;19.152;2023-05-22T05:52:50;98333.30;;;18.04;47.13
41306;BME280;27051;50.376;19.152;2023-05-22T05:55:17;98332.63;;;18.12;46.82
41306;BME280;27051;50.376;19.152;2023-05-22T05:57:43;98329.23;;;18.19;46.84
41306;BME280;27051;50.376;19.152;2023-05-22T06:00:11;98329.97;;;18.29;46.62
41306;BME280;27051;50.376;19.152;2023-05-22T06:02:37;98326.73;;;18.36;46.35
41306;BME280;27051;50.376;19.152;2023-05-22T06:05:04;98322.23;;;18.44;46.38
41306;BME280;27051;50.376;19.152;2023-05-22T06:07:31;98321.78;;;18.52;46.06
41306;BME280;27051;50.376;19.152;2023-05-22T06:09:58;98316.42;;;18.58;45.58
41306;BME280;27051;50.376;19.152;2023-05-22T06:12:24;98319.23;;;18.68;45.64
41306;BME280;27051;50.376;19.152;2023-05-22T06:14:51;98318.12;;;18.79;45.50
41306;BME280;27051;50.376;19.152;2023-05-22T06:17:17;98319.27;;;18.90;45.68
41306;BME280;27051;50.376;19.152;2023-05-22T06:19:44;98320.14;;;19.02;45.45
41306;BME280;27051;50.376;19.152;2023-05-22T06:22:11;98320.67;;;19.15;45.46
41306;BME280;27051;50.376;19.152;2023-05-22T06:24:37;98323.00;;;19.30;44.97
41306;BME280;27051;50.376;19.152;2023-05-22T06:27:04;98319.93;;;19.43;44.81
41306;BME280;27051;50.376;19.152;2023-05-22T06:29:31;98320.15;;;19.55;44.70
41306;BME280;27051;50.376;19.152;2023-05-22T06:31:58;98318.58;;;19.65;44.26
41306;BME280;27051;50.376;19.152;2023-05-22T06:34:24;98318.33;;;19.77;44.53
41306;BME280;27051;50.376;19.152;2023-05-22T06:36:51;98312.75;;;19.89;44.33
41306;BME280;27051;50.376;19.152;2023-05-22T06:39:17;98314.80;;;20.03;44.26
41306;BME280;27051;50.376;19.152;2023-05-22T06:41:44;98315.30;;;20.13;43.54
41306;BME280;27051;50.376;19.152;2023-05-22T06:44:11;98315.73;;;20.20;43.32
41306;BME280;27051;50.376;19.152;2023-05-22T06:46:37;98320.35;;;20.31;43.50
41306;BME280;27051;50.376;19.152;2023-05-22T06:49:04;98318.66;;;20.40;42.94
41306;BME280;27051;50.376;19.152;2023-05-22T06:51:30;98320.55;;;20.49;43.27
41306;BME280;27051;50.376;19.152;2023-05-22T06:53:57;98319.58;;;20.60;42.71
41306;BME280;27051;50.376;19.152;2023-05-22T06:56:24;98318.55;;;20.71;42.49
41306;BME280;27051;50.376;19.152;2023-05-22T06:58:50;98318.30;;;20.76;41.80
41306;BME280;27051;50.376;19.152;2023-05-22T07:01:17;98317.98;;;20.87;42.43
41306;BME280;27051;50.376;19.152;2023-05-22T07:03:44;98316.54;;;21.03;42.08
41306;BME280;27051;50.376;19.152;2023-05-22T07:06:11;98315.44;;;21.13;41.81
41306;BME280;27051;50.376;19.152;2023-05-22T07:08:38;98314.92;;;21.25;41.60
41306;BME280;27051;50.376;19.152;2023-05-22T07:11:04;98313.98;;;21.36;41.54
41306;BME280;27051;50.376;19.152;2023-05-22T07:13:31;98312.29;;;21.42;40.53
41306;BME280;27051;50.376;19.152;2023-05-22T07:15:58;98312.28;;;21.43;41.05
41306;BME280;27051;50.376;19.152;2023-05-22T07:18:24;98311.65;;;21.44;40.35
41306;BME280;27051;50.376;19.152;2023-05-22T07:20:51;98308.92;;;21.43;39.72
41306;BME280;27051;50.376;19.152;2023-05-22T07:23:18;98316.84;;;21.49;39.62
41306;BME280;27051;50.376;19.152;2023-05-22T07:25:45;98312.95;;;21.55;39.78
41306;BME280;27051;50.376;19.152;2023-05-22T07:28:11;98314.38;;;21.67;39.19
41306;BME280;27051;50.376;19.152;2023-05-22T07:30:38;98312.47;;;21.76;39.37
41306;BME280;27051;50.376;19.152;2023-05-22T07:33:04;98315.21;;;21.83;38.79
41306;BME280;27051;50.376;19.152;2023-05-22T07:35:31;98312.78;;;21.90;38.85
41306;BME280;27051;50.376;19.152;2023-05-22T07:37:58;98311.58;;;21.99;39.08
41306;BME280;27051;50.376;19.152;2023-05-22T07:40:25;98307.95;;;22.08;38.85
41306;BME280;27051;50.376;19.152;2023-05-22T07:42:51;98304.85;;;22.11;38.19
41306;BME280;27051;50.376;19.152;2023-05-22T07:45:19;98306.88;;;22.19;38.60
41306;BME280;27051;50.376;19.152;2023-05-22T07:47:46;98304.52;;;22.26;37.87
41306;BME280;27051;50.376;19.152;2023-05-22T07:50:12;98301.23;;;22.27;36.14
41306;BME280;27051;50.376;19.152;2023-05-22T07:52:39;98301.92;;;22.15;34.45
41306;BME280;27051;50.376;19.152;2023-05-22T07:55:06;98305.21;;;22.08;35.75
41306;BME280;27051;50.376;19.152;2023-05-22T07:57:33;98306.91;;;22.15;35.61
41306;BME280;27051;50.376;19.152;2023-05-22T08:00:00;98302.44;;;22.24;34.93
41306;BME280;27051;50.376;19.152;2023-05-22T08:02:26;98306.05;;;22.35;35.22
41306;BME280;27051;50.376;19.152;2023-05-22T08:04:53;98304.48;;;22.41;34.83
41306;BME280;27051;50.376;19.152;2023-05-22T08:07:20;98300.44;;;22.50;35.46
41306;BME280;27051;50.376;19.152;2023-05-22T08:09:46;98297.46;;;22.65;34.57
41306;BME280;27051;50.376;19.152;2023-05-22T08:12:13;98297.66;;;22.78;35.26
41306;BME280;27051;50.376;19.152;2023-05-22T08:14:39;98304.34;;;22.91;33.42
41306;BME280;27051;50.376;19.152;2023-05-22T08:17:06;98300.02;;;22.87;33.47
41306;BME280;27051;50.376;19.152;2023-05-22T08:19:33;98299.15;;;22.92;33.81
41306;BME280;27051;50.376;19.152;2023-05-22T08:21:59;98302.41;;;22.94;31.58
41306;BME280;27051;50.376;19.152;2023-05-22T08:24:26;98301.45;;;22.91;31.93
41306;BME280;27051;50.376;19.152;2023-05-22T08:26:54;98300.13;;;22.86;31.12
41306;BME280;27051;50.376;19.152;2023-05-22T08:29:21;98299.38;;;22.94;32.99
41306;BME280;27051;50.376;19.152;2023-05-22T08:31:47;98298.49;;;23.05;32.32
41306;BME280;27051;50.376;19.152;2023-05-22T08:34:14;98294.30;;;23.08;31.30
41306;BME280;27051;50.376;19.152;2023-05-22T08:36:41;98289.81;;;23.05;31.41
41306;BME280;27051;50.376;19.152;2023-05-22T08:39:08;98292.04;;;23.08;31.10
41306;BME280;27051;50.376;19.152;2023-05-22T08:41:35;98290.40;;;23.33;33.55
41306;BME280;27051;50.376;19.152;2023-05-22T08:44:02;98291.10;;;23.59;31.64
41306;BME280;27051;50.376;19.152;2023-05-22T08:46:29;98289.23;;;23.76;32.47
41306;BME280;27051;50.376;19.152;2023-05-22T08:48:57;98288.20;;;23.96;32.11
41306;BME280;27051;50.376;19.152;2023-05-22T08:51:28;98286.11;;;24.21;32.48
41306;BME280;27051;50.376;19.152;2023-05-22T08:53:55;98283.48;;;24.44;32.78
41306;BME280;27051;50.376;19.152;2023-05-22T08:56:22;98286.46;;;24.55;31.83
41306;BME280;27051;50.376;19.152;2023-05-22T08:58:49;98288.95;;;24.60;31.85
41306;BME280;27051;50.376;19.152;2023-05-22T09:01:16;98288.66;;;24.62;30.32
41306;BME280;27051;50.376;19.152;2023-05-22T09:03:44;98283.05;;;24.63;31.17
41306;BME280;27051;50.376;19.152;2023-05-22T09:06:11;98287.70;;;24.85;31.98
41306;BME280;27051;50.376;19.152;2023-05-22T09:08:39;98284.13;;;25.16;31.12
41306;BME280;27051;50.376;19.152;2023-05-22T09:11:05;98285.30;;;25.38;30.69
41306;BME280;27051;50.376;19.152;2023-05-22T09:13:32;98286.56;;;25.58;30.35
41306;BME280;27051;50.376;19.152;2023-05-22T09:18:31;98281.91;;;25.97;30.46
41306;BME280;27051;50.376;19.152;2023-05-22T09:20:59;98279.27;;;26.37;29.39
41306;BME280;27051;50.376;19.152;2023-05-22T09:23:26;98279.38;;;26.67;29.28
41306;BME280;27051;50.376;19.152;2023-05-22T09:25:57;98282.38;;;26.97;29.53
41306;BME280;27051;50.376;19.152;2023-05-22T09:28:25;98279.77;;;27.38;28.64
41306;BME280;27051;50.376;19.152;2023-05-22T09:30:53;98278.90;;;27.61;28.30
41306;BME280;27051;50.376;19.152;2023-05-22T09:33:22;98274.49;;;27.80;28.20
41306;BME280;27051;50.376;19.152;2023-05-22T09:35:51;98275.88;;;28.20;28.98
41306;BME280;27051;50.376;19.152;2023-05-22T09:38:17;98277.88;;;28.68;28.42
41306;BME280;27051;50.376;19.152;2023-05-22T09:40:44;98276.87;;;28.91;27.03
41306;BME280;27051;50.376;19.152;2023-05-22T09:43:11;98270.65;;;29.14;27.76
41306;BME280;27051;50.376;19.152;2023-05-22T09:45:42;98271.21;;;29.46;27.62
41306;BME280;27051;50.376;19.152;2023-05-22T09:48:09;98269.34;;;29.75;27.29
41306;BME280;27051;50.376;19.152;2023-05-22T09:50:36;98272.65;;;29.93;26.49
41306;BME280;27051;50.376;19.152;2023-05-22T09:53:03;98270.88;;;30.06;26.99
41306;BME280;27051;50.376;19.152;2023-05-22T09:55:30;98265.34;;;30.33;26.41
41306;BME280;27051;50.376;19.152;2023-05-22T09:58:02;98264.48;;;30.58;26.14
41306;BME280;27051;50.376;19.152;2023-05-22T10:00:29;98264.48;;;30.78;25.55
41306;BME280;27051;50.376;19.152;2023-05-22T10:02:58;98263.08;;;30.95;25.29
41306;BME280;27051;50.376;19.152;2023-05-22T10:05:31;98258.47;;;30.97;23.87
41306;BME280;27051;50.376;19.152;2023-05-22T10:08:08;98257.77;;;31.00;24.96
41306;BME280;27051;50.376;19.152;2023-05-22T10:10:37;98252.70;;;31.29;25.18
41306;BME280;27051;50.376;19.152;2023-05-22T10:13:04;98246.05;;;31.58;25.18
41306;BME280;27051;50.376;19.152;2023-05-22T10:15:31;98248.89;;;31.74;24.38
41306;BME280;27051;50.376;19.152;2023-05-22T10:17:58;98253.34;;;31.60;23.68
41306;BME280;27051;50.376;19.152;2023-05-22T10:20:27;98250.09;;;31.51;24.19
41306;BME280;27051;50.376;19.152;2023-05-22T10:22:54;98254.69;;;31.40;24.09
41306;BME280;27051;50.376;19.152;2023-05-22T10:25:22;98253.61;;;31.40;24.20
41306;BME280;27051;50.376;19.152;2023-05-22T10:27:51;98248.29;;;31.60;24.14
41306;BME280;27051;50.376;19.152;2023-05-22T10:33:20;98243.58;;;32.16;24.23
41306;BME280;27051;50.376;19.152;2023-05-22T10:41:10;98240.21;;;32.31;23.23
41306;BME280;27051;50.376;19.152;2023-05-22T10:43:41;98239.27;;;32.31;23.44
41306;BME280;27051;50.376;19.152;2023-05-22T10:46:10;98235.71;;;32.48;22.84
41306;BME280;27051;50.376;19.152;2023-05-22T10:48:39;98234.14;;;32.37;23.35
41306;BME280;27051;50.376;19.152;2023-05-22T10:51:06;98238.06;;;32.37;23.51
41306;BME280;27051;50.376;19.152;2023-05-22T10:53:34;98234.94;;;32.44;23.24
41306;BME280;27051;50.376;19.152;2023-05-22T10:56:12;98237.67;;;32.50;23.51
41306;BME280;27051;50.376;19.152;2023-05-22T10:58:54;98237.05;;;32.68;22.93
41306;BME280;27051;50.376;19.152;2023-05-22T11:01:24;98236.34;;;32.95;23.49
41306;BME280;27051;50.376;19.152;2023-05-22T11:03:58;98233.74;;;33.15;22.72
41306;BME280;27051;50.376;19.152;2023-05-22T11:09:31;98229.81;;;33.63;22.51
41306;BME280;27051;50.376;19.152;2023-05-22T11:14:40;98228.80;;;33.96;21.96
41306;BME280;27051;50.376;19.152;2023-05-22T11:17:07;98229.60;;;34.17;22.29
41306;BME280;27051;50.376;19.152;2023-05-22T11:19:39;98225.67;;;34.46;21.78
41306;BME280;27051;50.376;19.152;2023-05-22T11:22:06;98225.59;;;34.65;21.70
41306;BME280;27051;50.376;19.152;2023-05-22T11:24:33;98218.43;;;34.86;21.72
41306;BME280;27051;50.376;19.152;2023-05-22T11:27:06;98208.48;;;34.68;20.46
41306;BME280;27051;50.376;19.152;2023-05-22T11:29:33;98216.34;;;34.21;21.54
41306;BME280;27051;50.376;19.152;2023-05-22T11:32:00;98213.60;;;34.06;21.24
41306;BME280;27051;50.376;19.152;2023-05-22T11:34:27;98210.16;;;33.90;20.88
41306;BME280;27051;50.376;19.152;2023-05-22T11:36:57;98202.93;;;33.78;21.28
41306;BME280;27051;50.376;19.152;2023-05-22T11:39:24;98207.89;;;33.90;21.35
41306;BME280;27051;50.376;19.152;2023-05-22T11:41:51;98205.45;;;34.23;21.38
41306;BME280;27051;50.376;19.152;2023-05-22T11:44:18;98207.81;;;34.73;21.13
41306;BME280;27051;50.376;19.152;2023-05-22T11:46:44;98209.64;;;35.28;20.85
41306;BME280;27051;50.376;19.152;2023-05-22T11:49:11;98209.45;;;35.43;20.45
41306;BME280;27051;50.376;19.152;2023-05-22T11:51:39;98207.45;;;35.57;20.59
41306;BME280;27051;50.376;19.152;2023-05-22T11:54:06;98206.86;;;35.80;20.22
41306;BME280;27051;50.376;19.152;2023-05-22T11:56:32;98206.30;;;35.99;19.61
41306;BME280;27051;50.376;19.152;2023-05-22T11:58:59;98204.70;;;36.47;19.70
41306;BME280;27051;50.376;19.152;2023-05-22T12:01:26;98206.36;;;36.94;19.10
41306;BME280;27051;50.376;19.152;2023-05-22T12:03:53;98207.98;;;37.44;19.07
41306;BME280;27051;50.376;19.152;2023-05-22T12:06:21;98209.37;;;37.91;18.47
41306;BME280;27051;50.376;19.152;2023-05-22T12:08:47;98214.16;;;38.06;18.51
41306;BME280;27051;50.376;19.152;2023-05-22T12:11:15;98209.17;;;38.14;18.31
41306;BME280;27051;50.376;19.152;2023-05-22T12:13:42;98208.55;;;38.34;18.04
41306;BME280;27051;50.376;19.152;2023-05-22T12:16:19;98206.94;;;38.38;17.87
41306;BME280;27051;50.376;19.152;2023-05-22T12:18:46;98208.52;;;38.33;17.59
41306;BME280;27051;50.376;19.152;2023-05-22T12:21:12;98208.73;;;38.48;17.44
41306;BME280;27051;50.376;19.152;2023-05-22T12:23:47;98205.43;;;38.61;17.33
41306;BME280;27051;50.376;19.152;2023-05-22T12:26:14;98203.62;;;38.58;17.45
41306;BME280;27051;50.376;19.152;2023-05-22T12:28:41;98197.58;;;38.19;17.16
41306;BME280;27051;50.376;19.152;2023-05-22T12:31:08;98196.11;;;37.44;17.45
41306;BME280;27051;50.376;19.152;2023-05-22T12:33:34;98192.04;;;36.38;17.66
41306;BME280;27051;50.376;19.152;2023-05-22T12:36:06;98195.98;;;35.37;17.96
41306;BME280;27051;50.376;19.152;2023-05-22T12:38:33;98184.73;;;34.57;18.65
41306;BME280;27051;50.376;19.152;2023-05-22T12:40:59;98181.55;;;34.30;18.85
41306;BME280;27051;50.376;19.152;2023-05-22T12:43:26;98179.98;;;33.94;19.05
41306;BME280;27051;50.376;19.152;2023-05-22T12:45:53;98171.34;;;33.32;19.22
41306;BME280;27051;50.376;19.152;2023-05-22T12:48:20;98172.16;;;32.58;19.79
41306;BME280;27051;50.376;19.152;2023-05-22T12:50:46;98166.58;;;31.95;20.09
41306;BME280;27051;50.376;19.152;2023-05-22T12:53:19;98164.66;;;31.57;21.01
41306;BME280;27051;50.376;19.152;2023-05-22T12:55:46;98164.70;;;31.20;21.03
41306;BME280;27051;50.376;19.152;2023-05-22T12:58:12;98164.65;;;31.20;21.23
41306;BME280;27051;50.376;19.152;2023-05-22T13:00:39;98161.58;;;32.24;21.31
41306;BME280;27051;50.376;19.152;2023-05-22T13:03:06;98163.48;;;33.96;20.60
41306;BME280;27051;50.376;19.152;2023-05-22T13:05:33;98160.91;;;35.84;19.89
41306;BME280;27051;50.376;19.152;2023-05-22T13:07:59;98159.06;;;37.40;18.73
41306;BME280;27051;50.376;19.152;2023-05-22T13:10:26;98155.52;;;38.48;17.89
41306;BME280;27051;50.376;19.152;2023-05-22T13:12:53;98157.79;;;39.26;17.07
41306;BME280;27051;50.376;19.152;2023-05-22T13:15:19;98155.91;;;39.94;17.04
41306;BME280;27051;50.376;19.152;2023-05-22T13:17:49;98150.67;;;40.79;17.15
41306;BME280;27051;50.376;19.152;2023-05-22T13:20:15;98147.39;;;41.41;16.10